sensor_id;sensor_type;location;lat;lon;timestamp;temperature;humidity
2657;DHT22;1338;48.176;11.792;2023-06-26T00:00:31;15.30;99.90
2657;DHT22;1338;48.176;11.792;2023-06-26T00:03:00;15.30;99.90
2657;DHT22;1338;48.176;11.792;2023-06-26T00:05:28;15.20;99.90
2657;DHT22;1338;48.176;11.792;2023-06-26T00:07:57;15.10;99.90
2657;DHT22;1338;48.176;11.792;2023-06-26T00:10:27;15.30;99.90
2657;DHT22;1338;48.176;11.792;2023-06-26T00:12:58;15.20;99.90
2657;DHT22;1338;48.176;11.792;2023-06-26T00:15:27;15.10;99.90
2657;DHT22;1338;48.176;11.792;2023-06-26T00:17:58;14.90;99.90
2657;DHT22;1338;48.176;11.792;2023-06-26T00:20:27;14.90;99.90
2657;DHT22;1338;48.176;11.792;2023-06-26T00:22:56;15.00;99.90
2657;DHT22;1338;48.176;11.792;2023-06-26T00:25:26;14.90;99.90
2657;DHT22;1338;48.176;11.792;2023-06-26T00:27:54;14.80;99.90
2657;DHT22;1338;48.176;11.792;2023-06-26T00:30:24;14.90;99.90
2657;DHT22;1338;48.176;11.792;2023-06-26T00:32:53;15.00;99.90
2657;DHT22;1338;48.176;11.792;2023-06-26T00:35:24;14.90;99.90
2657;DHT22;1338;48.176;11.792;2023-06-26T00:37:52;14.80;99.90
2657;DHT22;1338;48.176;11.792;2023-06-26T00:40:21;14.80;99.90
2657;DHT22;1338;48.176;11.792;2023-06-26T00:42:49;14.80;99.90
2657;DHT22;1338;48.176;11.792;2023-06-26T00:45:18;14.90;99.90
2657;DHT22;1338;48.176;11.792;2023-06-26T00:48:06;14.90;99.90
2657;DHT22;1338;48.176;11.792;2023-06-26T00:50:34;15.00;99.90
2657;DHT22;1338;48.176;11.792;2023-06-26T00:53:04;15.00;99.90
2657;DHT22;1338;48.176;11.792;2023-06-26T00:55:32;14.90;99.90
2657;DHT22;1338;48.176;11.792;2023-06-26T00:58:01;14.90;99.90
2657;DHT22;1338;48.176;11.792;2023-06-26T01:00:30;15.00;99.90
2657;DHT22;1338;48.176;11.792;2023-06-26T01:02:59;15.00;99.90
2657;DHT22;1338;48.176;11.792;2023-06-26T01:05:29;15.10;99.90
2657;DHT22;1338;48.176;11.792;2023-06-26T01:07:58;15.00;99.90
2657;DHT22;1338;48.176;11.792;2023-06-26T01:10:27;15.10;99.90
2657;DHT22;1338;48.176;11.792;2023-06-26T01:12:57;15.40;99.90
2657;DHT22;1338;48.176;11.792;2023-06-26T01:15:28;15.30;99.90
2657;DHT22;1338;48.176;11.792;2023-06-26T01:17:58;15.20;99.90
2657;DHT22;1338;48.176;11.792;2023-06-26T01:20:34;15.30;99.90
2657;DHT22;1338;48.176;11.792;2023-06-26T01:23:12;15.10;99.90
2657;DHT22;1338;48.176;11.792;2023-06-26T01:25:53;15.10;99.90
2657;DHT22;1338;48.176;11.792;2023-06-26T01:28:26;15.10;99.90
2657;DHT22;1338;48.176;11.792;2023-06-26T01:30:56;15.10;99.90
2657;DHT22;1338;48.176;11.792;2023-06-26T01:33:25;15.00;99.90
2657;DHT22;1338;48.176;11.792;2023-06-26T01:35:55;14.90;99.90
2657;DHT22;1338;48.176;11.792;2023-06-26T01:38:24;15.00;99.90
2657;DHT22;1338;48.176;11.792;2023-06-26T01:40:54;14.90;99.90
2657;DHT22;1338;48.176;11.792;2023-06-26T01:43:29;14.80;99.90
2657;DHT22;1338;48.176;11.792;2023-06-26T01:46:01;14.80;99.90
2657;DHT22;1338;48.176;11.792;2023-06-26T01:48:40;14.70;99.90
2657;DHT22;1338;48.176;11.792;2023-06-26T01:51:13;14.60;99.90
2657;DHT22;1338;48.176;11.792;2023-06-26T01:53:46;14.50;99.90
2657;DHT22;1338;48.176;11.792;2023-06-26T01:56:16;14.50;99.90
2657;DHT22;1338;48.176;11.792;2023-06-26T01:58:49;14.40;99.90
2657;DHT22;1338;48.176;11.792;2023-06-26T02:01:24;14.30;99.90
2657;DHT22;1338;48.176;11.792;2023-06-26T02:03:53;14.30;99.90
2657;DHT22;1338;48.176;11.792;2023-06-26T02:06:22;14.30;99.90
2657;DHT22;1338;48.176;11.792;2023-06-26T02:08:51;14.20;99.90
2657;DHT22;1338;48.176;11.792;2023-06-26T02:11:20;14.30;99.90
2657;DHT22;1338;48.176;11.792;2023-06-26T02:13:50;14.20;99.90
2657;DHT22;1338;48.176;11.792;2023-06-26T02:16:19;14.20;99.90
2657;DHT22;1338;48.176;11.792;2023-06-26T02:18:51;14.20;99.90
2657;DHT22;1338;48.176;11.792;2023-06-26T02:21:22;14.10;99.90
2657;DHT22;1338;48.176;11.792;2023-06-26T02:23:51;14.00;99.90
2657;DHT22;1338;48.176;11.792;2023-06-26T02:26:19;14.00;99.90
2657;DHT22;1338;48.176;11.792;2023-06-26T02:28:50;13.90;99.90
2657;DHT22;1338;48.176;11.792;2023-06-26T02:31:19;13.90;99.90
2657;DHT22;1338;48.176;11.792;2023-06-26T02:33:47;13.80;99.90
2657;DHT22;1338;48.176;11.792;2023-06-26T02:36:16;13.80;99.90
2657;DHT22;1338;48.176;11.792;2023-06-26T02:38:45;13.80;99.90
2657;DHT22;1338;48.176;11.792;2023-06-26T02:41:14;13.70;99.90
2657;DHT22;1338;48.176;11.792;2023-06-26T02:43:44;13.70;99.90
2657;DHT22;1338;48.176;11.792;2023-06-26T02:46:16;13.70;99.90
2657;DHT22;1338;48.176;11.792;2023-06-26T02:48:45;13.60;99.90
2657;DHT22;1338;48.176;11.792;2023-06-26T02:51:13;13.60;99.90
2657;DHT22;1338;48.176;11.792;2023-06-26T02:53:42;13.60;99.90
2657;DHT22;1338;48.176;11.792;2023-06-26T02:56:11;13.60;99.90
2657;DHT22;1338;48.176;11.792;2023-06-26T02:58:39;13.60;99.90
2657;DHT22;1338;48.176;11.792;2023-06-26T03:01:08;13.70;99.90
2657;DHT22;1338;48.176;11.792;2023-06-26T03:03:41;13.70;99.90
2657;DHT22;1338;48.176;11.792;2023-06-26T03:06:14;13.70;99.90
2657;DHT22;1338;48.176;11.792;2023-06-26T03:08:44;13.60;99.90
2657;DHT22;1338;48.176;11.792;2023-06-26T03:11:14;13.70;99.90
2657;DHT22;1338;48.176;11.792;2023-06-26T03:13:43;13.70;99.90
2657;DHT22;1338;48.176;11.792;2023-06-26T03:16:13;13.60;99.90
2657;DHT22;1338;48.176;11.792;2023-06-26T03:18:44;13.50;99.90
2657;DHT22;1338;48.176;11.792;2023-06-26T03:21:13;13.60;99.90
2657;DHT22;1338;48.176;11.792;2023-06-26T03:23:42;13.60;99.90
2657;DHT22;1338;48.176;11.792;2023-06-26T03:26:11;13.50;99.90
2657;DHT22;1338;48.176;11.792;2023-06-26T03:28:41;13.60;99.90
2657;DHT22;1338;48.176;11.792;2023-06-26T03:31:10;13.60;99.90
2657;DHT22;1338;48.176;11.792;2023-06-26T03:33:39;13.80;99.90
2657;DHT22;1338;48.176;11.792;2023-06-26T03:36:09;13.70;99.90
2657;DHT22;1338;48.176;11.792;2023-06-26T03:38:38;13.90;99.90
2657;DHT22;1338;48.176;11.792;2023-06-26T03:41:07;13.70;99.90
2657;DHT22;1338;48.176;11.792;2023-06-26T03:43:37;13.80;99.90
2657;DHT22;1338;48.176;11.792;2023-06-26T03:46:15;13.80;99.90
2657;DHT22;1338;48.176;11.792;2023-06-26T03:48:46;13.80;99.90
2657;DHT22;1338;48.176;11.792;2023-06-26T03:51:16;13.80;99.90
2657;DHT22;1338;48.176;11.792;2023-06-26T03:53:46;13.80;99.90
2657;DHT22;1338;48.176;11.792;2023-06-26T03:56:15;13.90;99.90
2657;DHT22;1338;48.176;11.792;2023-06-26T03:58:44;13.90;99.90
2657;DHT22;1338;48.176;11.792;2023-06-26T04:01:13;14.00;99.90
2657;DHT22;1338;48.176;11.792;2023-06-26T04:03:43;14.00;99.90
2657;DHT22;1338;48.176;11.792;2023-06-26T04:06:12;14.10;99.90
2657;DHT22;1338;48.176;11.792;2023-06-26T04:08:42;14.10;99.90
2657;DHT22;1338;48.176;11.792;2023-06-26T04:11:11;14.20;99.90
2657;DHT22;1338;48.176;11.792;2023-06-26T04:13:40;14.20;99.90
2657;DHT22;1338;48.176;11.792;2023-06-26T04:16:09;14.40;99.90
2657;DHT22;1338;48.176;11.792;2023-06-26T04:18:38;14.40;99.90
2657;DHT22;1338;48.176;11.792;2023-06-26T04:21:08;14.60;99.90
2657;DHT22;1338;48.176;11.792;2023-06-26T04:23:45;14.80;99.90
2657;DHT22;1338;48.176;11.792;2023-06-26T04:26:15;14.70;99.90
2657;DHT22;1338;48.176;11.792;2023-06-26T04:28:44;14.80;99.90
2657;DHT22;1338;48.176;11.792;2023-06-26T04:31:13;15.00;99.90
2657;DHT22;1338;48.176;11.792;2023-06-26T04:33:42;14.90;99.90
2657;DHT22;1338;48.176;11.792;2023-06-26T04:36:12;14.90;99.90
2657;DHT22;1338;48.176;11.792;2023-06-26T04:38:41;15.00;99.90
2657;DHT22;1338;48.176;11.792;2023-06-26T04:41:11;15.30;99.90
2657;DHT22;1338;48.176;11.792;2023-06-26T04:43:40;15.80;99.90
2657;DHT22;1338;48.176;11.792;2023-06-26T04:46:09;16.30;99.90
2657;DHT22;1338;48.176;11.792;2023-06-26T04:48:38;16.60;99.90
2657;DHT22;1338;48.176;11.792;2023-06-26T04:51:06;16.80;99.90
2657;DHT22;1338;48.176;11.792;2023-06-26T04:53:35;17.10;99.90
2657;DHT22;1338;48.176;11.792;2023-06-26T04:56:04;16.90;99.90
2657;DHT22;1338;48.176;11.792;2023-06-26T04:58:33;17.30;99.90
2657;DHT22;1338;48.176;11.792;2023-06-26T05:01:02;16.90;99.90
2657;DHT22;1338;48.176;11.792;2023-06-26T05:03:34;16.80;99.90
2657;DHT22;1338;48.176;11.792;2023-06-26T05:06:04;17.00;99.90
2657;DHT22;1338;48.176;11.792;2023-06-26T05:08:35;17.10;99.90
2657;DHT22;1338;48.176;11.792;2023-06-26T05:11:04;17.10;99.90
2657;DHT22;1338;48.176;11.792;2023-06-26T05:13:34;17.50;99.90
2657;DHT22;1338;48.176;11.792;2023-06-26T05:16:03;17.60;99.90
2657;DHT22;1338;48.176;11.792;2023-06-26T05:18:32;17.60;99.90
2657;DHT22;1338;48.176;11.792;2023-06-26T05:21:03;17.50;99.90
2657;DHT22;1338;48.176;11.792;2023-06-26T05:23:32;17.80;99.90
2657;DHT22;1338;48.176;11.792;2023-06-26T05:26:02;17.90;99.90
2657;DHT22;1338;48.176;11.792;2023-06-26T05:28:35;17.90;99.90
2657;DHT22;1338;48.176;11.792;2023-06-26T05:31:04;17.90;99.90
2657;DHT22;1338;48.176;11.792;2023-06-26T05:33:35;18.10;99.90
2657;DHT22;1338;48.176;11.792;2023-06-26T05:36:06;18.30;95.00
2657;DHT22;1338;48.176;11.792;2023-06-26T05:38:36;18.30;94.70
2657;DHT22;1338;48.176;11.792;2023-06-26T05:41:06;18.50;96.70
2657;DHT22;1338;48.176;11.792;2023-06-26T05:43:36;18.50;89.60
2657;DHT22;1338;48.176;11.792;2023-06-26T05:46:05;18.50;87.80
2657;DHT22;1338;48.176;11.792;2023-06-26T05:48:34;18.60;86.30
2657;DHT22;1338;48.176;11.792;2023-06-26T05:51:03;18.70;76.20
2657;DHT22;1338;48.176;11.792;2023-06-26T05:53:32;18.90;64.90
2657;DHT22;1338;48.176;11.792;2023-06-26T05:56:05;18.90;61.00
2657;DHT22;1338;48.176;11.792;2023-06-26T05:58:43;18.90;50.60
2657;DHT22;1338;48.176;11.792;2023-06-26T06:01:12;19.00;49.30
2657;DHT22;1338;48.176;11.792;2023-06-26T06:03:41;19.20;47.70
2657;DHT22;1338;48.176;11.792;2023-06-26T06:06:11;19.30;47.00
2657;DHT22;1338;48.176;11.792;2023-06-26T06:08:42;19.40;34.40
2657;DHT22;1338;48.176;11.792;2023-06-26T06:11:14;19.50;33.10
2657;DHT22;1338;48.176;11.792;2023-06-26T06:13:44;19.70;31.20
2657;DHT22;1338;48.176;11.792;2023-06-26T06:16:15;19.70;27.40
2657;DHT22;1338;48.176;11.792;2023-06-26T06:18:44;19.70;20.40
2657;DHT22;1338;48.176;11.792;2023-06-26T06:21:12;20.10;29.70
2657;DHT22;1338;48.176;11.792;2023-06-26T06:23:42;20.40;22.60
2657;DHT22;1338;48.176;11.792;2023-06-26T06:26:11;20.30;12.70
2657;DHT22;1338;48.176;11.792;2023-06-26T06:28:39;20.50;11.70
2657;DHT22;1338;48.176;11.792;2023-06-26T06:31:09;20.60;4.40
2657;DHT22;1338;48.176;11.792;2023-06-26T06:33:37;20.50;1.00
2657;DHT22;1338;48.176;11.792;2023-06-26T06:36:06;20.50;1.00
2657;DHT22;1338;48.176;11.792;2023-06-26T06:38:35;20.60;1.00
2657;DHT22;1338;48.176;11.792;2023-06-26T06:41:04;20.70;1.00
2657;DHT22;1338;48.176;11.792;2023-06-26T06:43:33;20.90;1.00
2657;DHT22;1338;48.176;11.792;2023-06-26T06:46:03;21.00;1.00
2657;DHT22;1338;48.176;11.792;2023-06-26T06:48:37;21.10;1.00
2657;DHT22;1338;48.176;11.792;2023-06-26T06:51:05;21.30;1.00
2657;DHT22;1338;48.176;11.792;2023-06-26T06:53:36;21.30;1.00
2657;DHT22;1338;48.176;11.792;2023-06-26T06:56:04;21.50;1.00
2657;DHT22;1338;48.176;11.792;2023-06-26T06:58:33;21.50;1.00
2657;DHT22;1338;48.176;11.792;2023-06-26T07:01:03;21.40;1.00
2657;DHT22;1338;48.176;11.792;2023-06-26T07:03:33;21.60;1.00
2657;DHT22;1338;48.176;11.792;2023-06-26T07:06:03;21.70;1.00
2657;DHT22;1338;48.176;11.792;2023-06-26T07:08:32;22.20;1.00
2657;DHT22;1338;48.176;11.792;2023-06-26T07:11:01;22.60;1.00
2657;DHT22;1338;48.176;11.792;2023-06-26T07:13:30;22.90;1.00
2657;DHT22;1338;48.176;11.792;2023-06-26T07:15:59;22.90;1.00
2657;DHT22;1338;48.176;11.792;2023-06-26T07:18:28;22.90;1.00
2657;DHT22;1338;48.176;11.792;2023-06-26T07:20:58;23.10;1.00
2657;DHT22;1338;48.176;11.792;2023-06-26T07:23:29;23.40;1.00
2657;DHT22;1338;48.176;11.792;2023-06-26T07:25:58;23.70;1.00
2657;DHT22;1338;48.176;11.792;2023-06-26T07:28:26;23.60;1.00
2657;DHT22;1338;48.176;11.792;2023-06-26T07:30:56;23.20;1.00
2657;DHT22;1338;48.176;11.792;2023-06-26T07:33:25;23.90;1.00
2657;DHT22;1338;48.176;11.792;2023-06-26T07:35:54;24.30;1.00
2657;DHT22;1338;48.176;11.792;2023-06-26T07:38:24;24.30;1.00
2657;DHT22;1338;48.176;11.792;2023-06-26T07:40:52;24.30;1.00
2657;DHT22;1338;48.176;11.792;2023-06-26T07:43:20;24.40;1.00
2657;DHT22;1338;48.176;11.792;2023-06-26T07:45:50;24.40;1.00
2657;DHT22;1338;48.176;11.792;2023-06-26T07:48:23;24.30;1.00
2657;DHT22;1338;48.176;11.792;2023-06-26T07:50:52;24.60;1.00
2657;DHT22;1338;48.176;11.792;2023-06-26T07:53:24;24.70;1.00
2657;DHT22;1338;48.176;11.792;2023-06-26T07:55:54;24.90;1.00
2657;DHT22;1338;48.176;11.792;2023-06-26T07:58:23;24.30;1.00
2657;DHT22;1338;48.176;11.792;2023-06-26T08:00:53;24.60;1.00
2657;DHT22;1338;48.176;11.792;2023-06-26T08:03:24;24.90;1.00
2657;DHT22;1338;48.176;11.792;2023-06-26T08:06:01;24.20;1.00
2657;DHT22;1338;48.176;11.792;2023-06-26T08:08:31;24.90;1.00
2657;DHT22;1338;48.176;11.792;2023-06-26T08:11:00;25.00;1.00
2657;DHT22;1338;48.176;11.792;2023-06-26T08:13:29;25.10;1.00
2657;DHT22;1338;48.176;11.792;2023-06-26T08:15:57;24.80;1.00
2657;DHT22;1338;48.176;11.792;2023-06-26T08:18:26;25.40;1.00
2657;DHT22;1338;48.176;11.792;2023-06-26T08:20:55;25.10;1.00
2657;DHT22;1338;48.176;11.792;2023-06-26T08:23:23;25.40;1.00
2657;DHT22;1338;48.176;11.792;2023-06-26T08:25:54;25.70;1.00
2657;DHT22;1338;48.176;11.792;2023-06-26T08:28:26;25.50;1.00
2657;DHT22;1338;48.176;11.792;2023-06-26T08:30:54;25.90;1.00
2657;DHT22;1338;48.176;11.792;2023-06-26T08:33:23;26.00;1.00
2657;DHT22;1338;48.176;11.792;2023-06-26T08:35:52;26.20;1.00
2657;DHT22;1338;48.176;11.792;2023-06-26T08:38:23;25.90;1.00
2657;DHT22;1338;48.176;11.792;2023-06-26T08:40:54;25.50;1.00
2657;DHT22;1338;48.176;11.792;2023-06-26T08:43:23;25.80;1.00
2657;DHT22;1338;48.176;11.792;2023-06-26T08:45:51;26.40;1.00
2657;DHT22;1338;48.176;11.792;2023-06-26T08:48:21;26.10;1.00
2657;DHT22;1338;48.176;11.792;2023-06-26T08:50:53;26.10;1.00
2657;DHT22;1338;48.176;11.792;2023-06-26T08:53:29;26.20;1.00
2657;DHT22;1338;48.176;11.792;2023-06-26T08:56:03;26.30;1.00
2657;DHT22;1338;48.176;11.792;2023-06-26T08:58:34;26.60;1.00
2657;DHT22;1338;48.176;11.792;2023-06-26T09:01:08;26.80;1.00
2657;DHT22;1338;48.176;11.792;2023-06-26T09:03:37;26.40;1.00
2657;DHT22;1338;48.176;11.792;2023-06-26T09:06:05;27.10;1.00
2657;DHT22;1338;48.176;11.792;2023-06-26T09:08:34;27.00;1.00
2657;DHT22;1338;48.176;11.792;2023-06-26T09:11:05;26.80;1.00
2657;DHT22;1338;48.176;11.792;2023-06-26T09:13:33;27.20;1.00
2657;DHT22;1338;48.176;11.792;2023-06-26T09:16:06;27.20;1.00
2657;DHT22;1338;48.176;11.792;2023-06-26T09:18:36;27.40;1.00
2657;DHT22;1338;48.176;11.792;2023-06-26T09:21:08;27.50;1.00
2657;DHT22;1338;48.176;11.792;2023-06-26T09:23:37;27.70;1.00
2657;DHT22;1338;48.176;11.792;2023-06-26T09:26:10;27.90;1.00
2657;DHT22;1338;48.176;11.792;2023-06-26T09:28:42;27.70;1.00
2657;DHT22;1338;48.176;11.792;2023-06-26T09:31:14;27.70;1.00
2657;DHT22;1338;48.176;11.792;2023-06-26T09:34:01;28.00;1.00
2657;DHT22;1338;48.176;11.792;2023-06-26T09:36:30;28.10;1.00
2657;DHT22;1338;48.176;11.792;2023-06-26T09:39:06;28.10;1.00
2657;DHT22;1338;48.176;11.792;2023-06-26T09:41:43;27.90;1.00
2657;DHT22;1338;48.176;11.792;2023-06-26T09:44:14;28.00;1.00
2657;DHT22;1338;48.176;11.792;2023-06-26T09:46:45;28.60;1.00
2657;DHT22;1338;48.176;11.792;2023-06-26T09:49:13;28.40;1.00
2657;DHT22;1338;48.176;11.792;2023-06-26T09:51:42;28.50;1.00
2657;DHT22;1338;48.176;11.792;2023-06-26T09:54:11;28.60;1.00
2657;DHT22;1338;48.176;11.792;2023-06-26T09:56:42;28.40;1.00
2657;DHT22;1338;48.176;11.792;2023-06-26T09:59:10;28.90;1.00
2657;DHT22;1338;48.176;11.792;2023-06-26T10:01:41;29.10;1.00
2657;DHT22;1338;48.176;11.792;2023-06-26T10:04:11;28.90;1.00
2657;DHT22;1338;48.176;11.792;2023-06-26T10:06:45;28.90;1.00
2657;DHT22;1338;48.176;11.792;2023-06-26T10:09:17;28.70;1.00
2657;DHT22;1338;48.176;11.792;2023-06-26T10:11:53;29.00;1.00
2657;DHT22;1338;48.176;11.792;2023-06-26T10:14:25;29.00;1.00
2657;DHT22;1338;48.176;11.792;2023-06-26T10:16:57;29.20;1.00
2657;DHT22;1338;48.176;11.792;2023-06-26T10:19:27;29.60;1.00
2657;DHT22;1338;48.176;11.792;2023-06-26T10:21:57;29.40;1.00
2657;DHT22;1338;48.176;11.792;2023-06-26T10:24:29;29.80;1.00
2657;DHT22;1338;48.176;11.792;2023-06-26T10:27:03;29.50;1.00
2657;DHT22;1338;48.176;11.792;2023-06-26T10:29:33;29.90;1.00
2657;DHT22;1338;48.176;11.792;2023-06-26T10:32:05;29.70;1.00
2657;DHT22;1338;48.176;11.792;2023-06-26T10:34:35;29.90;1.00
2657;DHT22;1338;48.176;11.792;2023-06-26T10:37:05;29.70;1.00
2657;DHT22;1338;48.176;11.792;2023-06-26T10:39:46;30.20;1.00
2657;DHT22;1338;48.176;11.792;2023-06-26T10:42:19;29.90;1.00
2657;DHT22;1338;48.176;11.792;2023-06-26T10:44:48;30.20;1.00
2657;DHT22;1338;48.176;11.792;2023-06-26T10:47:29;30.30;1.00
2657;DHT22;1338;48.176;11.792;2023-06-26T10:50:17;30.30;1.00
2657;DHT22;1338;48.176;11.792;2023-06-26T10:53:21;29.30;1.00
2657;DHT22;1338;48.176;11.792;2023-06-26T10:55:55;29.60;1.00
2657;DHT22;1338;48.176;11.792;2023-06-26T10:58:30;29.80;1.00
2657;DHT22;1338;48.176;11.792;2023-06-26T11:01:23;30.00;1.00
2657;DHT22;1338;48.176;11.792;2023-06-26T11:04:04;30.30;1.00
2657;DHT22;1338;48.176;11.792;2023-06-26T11:06:35;30.30;1.00
2657;DHT22;1338;48.176;11.792;2023-06-26T11:09:10;29.60;1.00
2657;DHT22;1338;48.176;11.792;2023-06-26T11:11:57;30.10;1.00
2657;DHT22;1338;48.176;11.792;2023-06-26T11:14:31;30.30;1.00
2657;DHT22;1338;48.176;11.792;2023-06-26T11:17:04;30.10;1.00
2657;DHT22;1338;48.176;11.792;2023-06-26T11:19:32;30.50;1.00
2657;DHT22;1338;48.176;11.792;2023-06-26T11:22:05;30.40;1.00
2657;DHT22;1338;48.176;11.792;2023-06-26T11:24:34;30.30;1.00
2657;DHT22;1338;48.176;11.792;2023-06-26T11:27:04;30.60;1.00
2657;DHT22;1338;48.176;11.792;2023-06-26T11:29:35;30.80;1.00
2657;DHT22;1338;48.176;11.792;2023-06-26T11:32:07;30.80;1.00
2657;DHT22;1338;48.176;11.792;2023-06-26T11:34:37;30.80;1.00
2657;DHT22;1338;48.176;11.792;2023-06-26T11:37:09;29.80;1.00
2657;DHT22;1338;48.176;11.792;2023-06-26T11:39:39;30.50;1.00
2657;DHT22;1338;48.176;11.792;2023-06-26T11:42:11;30.30;1.00
2657;DHT22;1338;48.176;11.792;2023-06-26T11:44:43;30.10;1.00
2657;DHT22;1338;48.176;11.792;2023-06-26T11:47:16;31.10;1.00
2657;DHT22;1338;48.176;11.792;2023-06-26T11:49:47;31.80;99.90
2657;DHT22;1338;48.176;11.792;2023-06-26T11:52:16;31.60;99.90
2657;DHT22;1338;48.176;11.792;2023-06-26T11:54:45;30.70;99.90
2657;DHT22;1338;48.176;11.792;2023-06-26T11:57:14;31.20;1.00
2657;DHT22;1338;48.176;11.792;2023-06-26T11:59:50;30.10;1.00
2657;DHT22;1338;48.176;11.792;2023-06-26T12:02:20;29.50;1.00
2657;DHT22;1338;48.176;11.792;2023-06-26T12:04:50;30.30;1.00
2657;DHT22;1338;48.176;11.792;2023-06-26T12:07:19;31.20;1.00
2657;DHT22;1338;48.176;11.792;2023-06-26T12:09:50;31.60;1.00
2657;DHT22;1338;48.176;11.792;2023-06-26T12:12:19;31.60;1.00
2657;DHT22;1338;48.176;11.792;2023-06-26T12:14:50;30.70;1.00
2657;DHT22;1338;48.176;11.792;2023-06-26T12:17:23;30.40;1.00
2657;DHT22;1338;48.176;11.792;2023-06-26T12:19:52;30.20;1.00
2657;DHT22;1338;48.176;11.792;2023-06-26T12:22:21;31.10;1.00
2657;DHT22;1338;48.176;11.792;2023-06-26T12:24:49;31.20;1.00
2657;DHT22;1338;48.176;11.792;2023-06-26T12:27:18;30.40;1.00
2657;DHT22;1338;48.176;11.792;2023-06-26T12:29:52;29.80;1.00
2657;DHT22;1338;48.176;11.792;2023-06-26T12:32:23;30.80;1.00
2657;DHT22;1338;48.176;11.792;2023-06-26T12:34:52;31.80;1.00
2657;DHT22;1338;48.176;11.792;2023-06-26T12:37:21;31.80;1.00
2657;DHT22;1338;48.176;11.792;2023-06-26T12:39:55;31.20;1.00
2657;DHT22;1338;48.176;11.792;2023-06-26T12:42:26;31.40;1.00
2657;DHT22;1338;48.176;11.792;2023-06-26T12:44:56;31.10;1.00
2657;DHT22;1338;48.176;11.792;2023-06-26T12:47:26;30.60;1.00
2657;DHT22;1338;48.176;11.792;2023-06-26T12:49:55;29.90;1.00
2657;DHT22;1338;48.176;11.792;2023-06-26T12:52:25;30.80;1.00
2657;DHT22;1338;48.176;11.792;2023-06-26T12:54:55;31.30;1.00
2657;DHT22;1338;48.176;11.792;2023-06-26T12:57:24;31.70;1.00
2657;DHT22;1338;48.176;11.792;2023-06-26T12:59:53;31.40;1.00
2657;DHT22;1338;48.176;11.792;2023-06-26T13:02:23;31.40;1.00
2657;DHT22;1338;48.176;11.792;2023-06-26T13:04:52;31.70;1.00
2657;DHT22;1338;48.176;11.792;2023-06-26T13:07:22;30.90;1.00
2657;DHT22;1338;48.176;11.792;2023-06-26T13:09:52;32.10;1.00
2657;DHT22;1338;48.176;11.792;2023-06-26T13:12:22;32.40;1.00
2657;DHT22;1338;48.176;11.792;2023-06-26T13:14:51;32.60;1.00
2657;DHT22;1338;48.176;11.792;2023-06-26T13:17:20;31.20;1.00
2657;DHT22;1338;48.176;11.792;2023-06-26T13:19:50;31.60;1.00
2657;DHT22;1338;48.176;11.792;2023-06-26T13:22:19;31.10;1.00
2657;DHT22;1338;48.176;11.792;2023-06-26T13:24:48;31.20;1.00
2657;DHT22;1338;48.176;11.792;2023-06-26T13:27:17;30.60;1.00
2657;DHT22;1338;48.176;11.792;2023-06-26T13:29:47;31.40;1.00
2657;DHT22;1338;48.176;11.792;2023-06-26T13:32:16;31.40;1.00
2657;DHT22;1338;48.176;11.792;2023-06-26T13:34:44;31.80;1.00
2657;DHT22;1338;48.176;11.792;2023-06-26T13:37:17;31.80;1.00
2657;DHT22;1338;48.176;11.792;2023-06-26T13:39:46;32.10;1.00
2657;DHT22;1338;48.176;11.792;2023-06-26T13:42:17;32.30;1.00
2657;DHT22;1338;48.176;11.792;2023-06-26T13:44:46;32.70;1.00
2657;DHT22;1338;48.176;11.792;2023-06-26T13:47:27;32.90;1.00
2657;DHT22;1338;48.176;11.792;2023-06-26T13:49:56;32.10;1.00
2657;DHT22;1338;48.176;11.792;2023-06-26T13:52:26;31.90;1.00
2657;DHT22;1338;48.176;11.792;2023-06-26T13:54:55;33.30;1.00
2657;DHT22;1338;48.176;11.792;2023-06-26T13:57:24;32.00;1.00
2657;DHT22;1338;48.176;11.792;2023-06-26T13:59:55;32.20;1.00
2657;DHT22;1338;48.176;11.792;2023-06-26T14:02:24;32.20;1.00
2657;DHT22;1338;48.176;11.792;2023-06-26T14:04:53;32.10;1.00
2657;DHT22;1338;48.176;11.792;2023-06-26T14:07:22;32.20;1.00
2657;DHT22;1338;48.176;11.792;2023-06-26T14:09:52;32.90;1.00
2657;DHT22;1338;48.176;11.792;2023-06-26T14:12:21;32.70;1.00
2657;DHT22;1338;48.176;11.792;2023-06-26T14:14:50;32.70;1.00
2657;DHT22;1338;48.176;11.792;2023-06-26T14:17:18;32.80;1.00
2657;DHT22;1338;48.176;11.792;2023-06-26T14:19:46;32.80;1.00
2657;DHT22;1338;48.176;11.792;2023-06-26T14:22:15;33.20;1.00
2657;DHT22;1338;48.176;11.792;2023-06-26T14:24:44;32.00;1.00
2657;DHT22;1338;48.176;11.792;2023-06-26T14:27:14;32.00;1.00
2657;DHT22;1338;48.176;11.792;2023-06-26T14:29:42;31.70;1.00
2657;DHT22;1338;48.176;11.792;2023-06-26T14:32:11;32.60;1.00
2657;DHT22;1338;48.176;11.792;2023-06-26T14:34:40;32.90;1.00
2657;DHT22;1338;48.176;11.792;2023-06-26T14:37:08;32.80;1.00
2657;DHT22;1338;48.176;11.792;2023-06-26T14:39:39;32.70;1.00
2657;DHT22;1338;48.176;11.792;2023-06-26T14:42:08;33.00;1.00
2657;DHT22;1338;48.176;11.792;2023-06-26T14:44:39;33.40;1.00
2657;DHT22;1338;48.176;11.792;2023-06-26T14:47:08;33.30;1.00
2657;DHT22;1338;48.176;11.792;2023-06-26T14:49:36;34.30;1.00
2657;DHT22;1338;48.176;11.792;2023-06-26T14:52:05;33.90;1.00
2657;DHT22;1338;48.176;11.792;2023-06-26T14:54:35;32.90;1.00
2657;DHT22;1338;48.176;11.792;2023-06-26T14:57:05;31.90;1.00
2657;DHT22;1338;48.176;11.792;2023-06-26T14:59:34;32.80;1.00
2657;DHT22;1338;48.176;11.792;2023-06-26T15:02:05;34.60;1.00
2657;DHT22;1338;48.176;11.792;2023-06-26T15:04:34;32.90;1.00
2657;DHT22;1338;48.176;11.792;2023-06-26T15:07:03;33.00;1.00
2657;DHT22;1338;48.176;11.792;2023-06-26T15:09:31;31.90;1.00
2657;DHT22;1338;48.176;11.792;2023-06-26T15:12:01;31.90;1.00
2657;DHT22;1338;48.176;11.792;2023-06-26T15:14:30;32.20;1.00
2657;DHT22;1338;48.176;11.792;2023-06-26T15:16:59;33.00;1.00
2657;DHT22;1338;48.176;11.792;2023-06-26T15:19:29;33.00;1.00
2657;DHT22;1338;48.176;11.792;2023-06-26T15:21:57;33.60;1.00
2657;DHT22;1338;48.176;11.792;2023-06-26T15:24:25;32.70;1.00
2657;DHT22;1338;48.176;11.792;2023-06-26T15:26:54;32.90;1.00
2657;DHT22;1338;48.176;11.792;2023-06-26T15:29:24;33.10;1.00
2657;DHT22;1338;48.176;11.792;2023-06-26T15:32:02;32.70;1.00
2657;DHT22;1338;48.176;11.792;2023-06-26T15:34:34;31.70;1.00
2657;DHT22;1338;48.176;11.792;2023-06-26T15:37:03;31.60;1.00
2657;DHT22;1338;48.176;11.792;2023-06-26T15:39:35;31.10;1.00
2657;DHT22;1338;48.176;11.792;2023-06-26T15:42:07;31.20;1.00
2657;DHT22;1338;48.176;11.792;2023-06-26T15:44:35;31.40;1.00
2657;DHT22;1338;48.176;11.792;2023-06-26T15:47:05;31.90;1.00
2657;DHT22;1338;48.176;11.792;2023-06-26T15:49:35;32.90;1.00
2657;DHT22;1338;48.176;11.792;2023-06-26T15:52:05;33.00;1.00
2657;DHT22;1338;48.176;11.792;2023-06-26T15:54:33;31.70;1.00
2657;DHT22;1338;48.176;11.792;2023-06-26T15:57:02;31.30;1.00
2657;DHT22;1338;48.176;11.792;2023-06-26T15:59:31;30.90;1.00
2657;DHT22;1338;48.176;11.792;2023-06-26T16:01:59;30.90;1.00
2657;DHT22;1338;48.176;11.792;2023-06-26T16:04:28;30.60;1.00
2657;DHT22;1338;48.176;11.792;2023-06-26T16:07:00;30.30;1.00
2657;DHT22;1338;48.176;11.792;2023-06-26T16:09:29;30.20;1.00
2657;DHT22;1338;48.176;11.792;2023-06-26T16:11:57;30.30;1.00
2657;DHT22;1338;48.176;11.792;2023-06-26T16:14:26;30.40;1.00